sensor_id;sensor_type;location;lat;lon;timestamp;pressure;altitude;pressure_sealevel;temperature;humidity
34482;BME280;20720;48.886;9.388;2024-01-07T00:01:10;97764.25;;;9.69;100.00
34482;BME280;20720;48.886;9.388;2024-01-07T00:03:35;97761.03;;;9.67;100.00
34482;BME280;20720;48.886;9.388;2024-01-07T00:06:01;97762.06;;;9.66;100.00
34482;BME280;20720;48.886;9.388;2024-01-07T00:08:26;97765.50;;;9.60;100.00
34482;BME280;20720;48.886;9.388;2024-01-07T00:10:51;97765.91;;;9.64;100.00
34482;BME280;20720;48.886;9.388;2024-01-07T00:13:17;97762.50;;;9.50;100.00
34482;BME280;20720;48.886;9.388;2024-01-07T00:15:42;97764.56;;;9.48;100.00
34482;BME280;20720;48.886;9.388;2024-01-07T00:18:08;97775.22;;;9.53;100.00
34482;BME280;20720;48.886;9.388;2024-01-07T00:20:33;97769.16;;;9.52;100.00
34482;BME280;20720;48.886;9.388;2024-01-07T00:22:58;97769.00;;;9.41;100.00
34482;BME280;20720;48.886;9.388;2024-01-07T00:25:24;97769.22;;;9.33;100.00
34482;BME280;20720;48.886;9.388;2024-01-07T00:27:49;97768.16;;;9.47;100.00
34482;BME280;20720;48.886;9.388;2024-01-07T00:30:16;97770.81;;;9.27;100.00
34482;BME280;20720;48.886;9.388;2024-01-07T00:32:41;97757.56;;;8.90;100.00
34482;BME280;20720;48.886;9.388;2024-01-07T00:35:07;97765.16;;;9.37;100.00
34482;BME280;20720;48.886;9.388;2024-01-07T00:37:32;97770.38;;;9.50;100.00
34482;BME280;20720;48.886;9.388;2024-01-07T00:40:00;97771.59;;;9.41;100.00
34482;BME280;20720;48.886;9.388;2024-01-07T00:42:25;97764.31;;;9.56;100.00
34482;BME280;20720;48.886;9.388;2024-01-07T00:44:50;97752.75;;;8.61;100.00
34482;BME280;20720;48.886;9.388;2024-01-07T00:47:15;97758.19;;;8.98;100.00
34482;BME280;20720;48.886;9.388;2024-01-07T00:49:41;97758.75;;;9.33;100.00
34482;BME280;20720;48.886;9.388;2024-01-07T00:52:06;97768.59;;;9.37;100.00
34482;BME280;20720;48.886;9.388;2024-01-07T00:54:32;97767.19;;;9.48;100.00
34482;BME280;20720;48.886;9.388;2024-01-07T00:56:57;97762.31;;;9.45;100.00
34482;BME280;20720;48.886;9.388;2024-01-07T00:59:22;97768.00;;;9.42;100.00
34482;BME280;20720;48.886;9.388;2024-01-07T01:01:47;97758.50;;;9.41;100.00
34482;BME280;20720;48.886;9.388;2024-01-07T01:04:13;97769.38;;;9.51;100.00
34482;BME280;20720;48.886;9.388;2024-01-07T01:06:38;97770.38;;;9.50;100.00
34482;BME280;20720;48.886;9.388;2024-01-07T01:09:03;97782.06;;;9.54;100.00
34482;BME280;20720;48.886;9.388;2024-01-07T01:11:28;97759.69;;;9.45;100.00
34482;BME280;20720;48.886;9.388;2024-01-07T01:13:54;97774.19;;;9.54;100.00
34482;BME280;20720;48.886;9.388;2024-01-07T01:16:19;97778.06;;;9.45;100.00
34482;BME280;20720;48.886;9.388;2024-01-07T01:18:44;97783.66;;;9.62;100.00
34482;BME280;20720;48.886;9.388;2024-01-07T01:21:10;97793.31;;;9.74;100.00
34482;BME280;20720;48.886;9.388;2024-01-07T01:23:35;97785.25;;;9.69;100.00
34482;BME280;20720;48.886;9.388;2024-01-07T01:26:00;97796.34;;;9.71;100.00
34482;BME280;20720;48.886;9.388;2024-01-07T01:28:26;97788.63;;;9.89;100.00
34482;BME280;20720;48.886;9.388;2024-01-07T01:30:51;97791.28;;;9.76;100.00
34482;BME280;20720;48.886;9.388;2024-01-07T01:33:16;97785.78;;;9.84;100.00
34482;BME280;20720;48.886;9.388;2024-01-07T01:35:41;97791.28;;;9.76;100.00
34482;BME280;20720;48.886;9.388;2024-01-07T01:38:07;97794.31;;;9.80;100.00
34482;BME280;20720;48.886;9.388;2024-01-07T01:40:32;97791.28;;;9.76;100.00
34482;BME280;20720;48.886;9.388;2024-01-07T01:42:57;97787.38;;;9.92;100.00
34482;BME280;20720;48.886;9.388;2024-01-07T01:45:22;97786.59;;;9.91;100.00
34482;BME280;20720;48.886;9.388;2024-01-07T01:47:48;97794.03;;;9.94;100.00
34482;BME280;20720;48.886;9.388;2024-01-07T01:50:13;97782.69;;;10.07;100.00
34482;BME280;20720;48.886;9.388;2024-01-07T01:52:39;97793.66;;;9.97;100.00
34482;BME280;20720;48.886;9.388;2024-01-07T01:55:05;97798.03;;;10.03;100.00
34482;BME280;20720;48.886;9.388;2024-01-07T01:57:33;97791.25;;;9.89;100.00
34482;BME280;20720;48.886;9.388;2024-01-07T02:00:05;97802.19;;;9.80;100.00
34482;BME280;20720;48.886;9.388;2024-01-07T02:02:31;97795.50;;;9.84;100.00
34482;BME280;20720;48.886;9.388;2024-01-07T02:05:00;97792.84;;;9.97;100.00
34482;BME280;20720;48.886;9.388;2024-01-07T02:07:26;97801.41;;;9.73;100.00
34482;BME280;20720;48.886;9.388;2024-01-07T02:09:52;97790.03;;;9.85;100.00
34482;BME280;20720;48.886;9.388;2024-01-07T02:12:17;97791.63;;;9.93;100.00
34482;BME280;20720;48.886;9.388;2024-01-07T02:14:43;97802.09;;;9.99;100.00
34482;BME280;20720;48.886;9.388;2024-01-07T02:17:08;97790.44;;;9.82;100.00
34482;BME280;20720;48.886;9.388;2024-01-07T02:19:33;97789.56;;;10.01;100.00
34482;BME280;20720;48.886;9.388;2024-01-07T02:21:58;97795.00;;;10.06;100.00
34482;BME280;20720;48.886;9.388;2024-01-07T02:24:24;97790.03;;;9.85;100.00
34482;BME280;20720;48.886;9.388;2024-01-07T02:26:49;97795.63;;;10.02;100.00
34482;BME280;20720;48.886;9.388;2024-01-07T02:29:15;97797.28;;;9.96;100.00
34482;BME280;20720;48.886;9.388;2024-01-07T02:31:40;97798.88;;;10.10;100.00
34482;BME280;20720;48.886;9.388;2024-01-07T02:34:05;97796.28;;;9.84;100.00
34482;BME280;20720;48.886;9.388;2024-01-07T02:36:30;97796.06;;;9.92;100.00
34482;BME280;20720;48.886;9.388;2024-01-07T02:38:55;97791.22;;;9.96;100.00
34482;BME280;20720;48.886;9.388;2024-01-07T02:41:21;97790.59;;;9.94;100.00
34482;BME280;20720;48.886;9.388;2024-01-07T02:43:50;97793.22;;;9.94;100.00
34482;BME280;20720;48.886;9.388;2024-01-07T02:46:15;97797.69;;;9.87;100.00
34482;BME280;20720;48.886;9.388;2024-01-07T02:48:41;97796.06;;;9.92;100.00
34482;BME280;20720;48.886;9.388;2024-01-07T02:51:07;97791.19;;;10.02;100.00
34482;BME280;20720;48.886;9.388;2024-01-07T02:53:33;97788.41;;;9.97;100.00
34482;BME280;20720;48.886;9.388;2024-01-07T02:55:59;97791.84;;;9.91;100.00
34482;BME280;20720;48.886;9.388;2024-01-07T02:58:24;97794.94;;;9.69;100.00
34482;BME280;20720;48.886;9.388;2024-01-07T03:00:49;97795.91;;;9.81;100.00
34482;BME280;20720;48.886;9.388;2024-01-07T03:03:15;97797.31;;;9.77;100.00
34482;BME280;20720;48.886;9.388;2024-01-07T03:05:40;97795.28;;;9.85;100.00
34482;BME280;20720;48.886;9.388;2024-01-07T03:08:05;97800.53;;;9.85;100.00
34482;BME280;20720;48.886;9.388;2024-01-07T03:10:31;97804.66;;;9.48;100.00
34482;BME280;20720;48.886;9.388;2024-01-07T03:12:56;97796.59;;;9.50;100.00
34482;BME280;20720;48.886;9.388;2024-01-07T03:15:21;97801.44;;;9.53;100.00
34482;BME280;20720;48.886;9.388;2024-01-07T03:17:46;97806.66;;;9.66;100.00
34482;BME280;20720;48.886;9.388;2024-01-07T03:20:12;97798.19;;;9.64;100.00
34482;BME280;20720;48.886;9.388;2024-01-07T03:22:37;97797.81;;;9.41;100.00
34482;BME280;20720;48.886;9.388;2024-01-07T03:25:02;97808.72;;;9.38;100.00
34482;BME280;20720;48.886;9.388;2024-01-07T03:27:28;97799.44;;;9.35;100.00
34482;BME280;20720;48.886;9.388;2024-01-07T03:29:53;97805.69;;;9.41;100.00
34482;BME280;20720;48.886;9.388;2024-01-07T03:32:18;97810.13;;;9.27;100.00
34482;BME280;20720;48.886;9.388;2024-01-07T03:34:43;97814.38;;;9.35;100.00
34482;BME280;20720;48.886;9.388;2024-01-07T03:37:09;97812.34;;;9.37;100.00
34482;BME280;20720;48.886;9.388;2024-01-07T03:39:34;97818.81;;;9.28;100.00
34482;BME280;20720;48.886;9.388;2024-01-07T03:42:00;97824.06;;;9.28;100.00
34482;BME280;20720;48.886;9.388;2024-01-07T03:44:25;97824.03;;;9.41;100.00
34482;BME280;20720;48.886;9.388;2024-01-07T03:46:50;97824.03;;;9.41;100.00
34482;BME280;20720;48.886;9.388;2024-01-07T03:49:16;97823.63;;;9.57;100.00
34482;BME280;20720;48.886;9.388;2024-01-07T03:51:43;97829.09;;;9.36;100.00
34482;BME280;20720;48.886;9.388;2024-01-07T03:54:08;97814.75;;;9.45;100.00
34482;BME280;20720;48.886;9.388;2024-01-07T03:56:33;97828.44;;;9.60;100.00
34482;BME280;20720;48.886;9.388;2024-01-07T03:58:58;97821.81;;;9.51;100.00
34482;BME280;20720;48.886;9.388;2024-01-07T04:01:24;97831.72;;;9.36;100.00
34482;BME280;20720;48.886;9.388;2024-01-07T04:03:49;97832.13;;;9.20;100.00
34482;BME280;20720;48.886;9.388;2024-01-07T04:06:14;97830.31;;;9.07;100.00
34482;BME280;20720;48.886;9.388;2024-01-07T04:08:39;97831.13;;;9.08;100.00
34482;BME280;20720;48.886;9.388;2024-01-07T04:11:04;97835.34;;;8.76;100.00
34482;BME280;20720;48.886;9.388;2024-01-07T04:13:30;97828.91;;;8.92;100.00
34482;BME280;20720;48.886;9.388;2024-01-07T04:15:55;97831.69;;;8.71;100.00
34482;BME280;20720;48.886;9.388;2024-01-07T04:18:20;97831.41;;;8.33;100.00
34482;BME280;20720;48.886;9.388;2024-01-07T04:20:45;97840.78;;;9.20;100.00
34482;BME280;20720;48.886;9.388;2024-01-07T04:23:11;97843.22;;;9.22;100.00
34482;BME280;20720;48.886;9.388;2024-01-07T04:25:36;97841.81;;;9.13;100.00
34482;BME280;20720;48.886;9.388;2024-01-07T04:28:01;97845.25;;;9.33;100.00
34482;BME280;20720;48.886;9.388;2024-01-07T04:30:26;97842.09;;;8.44;100.00
34482;BME280;20720;48.886;9.388;2024-01-07T04:32:52;97845.84;;;9.15;100.00
34482;BME280;20720;48.886;9.388;2024-01-07T04:35:17;97844.63;;;9.24;100.00
34482;BME280;20720;48.886;9.388;2024-01-07T04:37:42;97836.75;;;8.79;100.00
34482;BME280;20720;48.886;9.388;2024-01-07T04:40:08;97846.16;;;8.53;100.00
34482;BME280;20720;48.886;9.388;2024-01-07T04:42:34;97855.47;;;8.82;100.00
34482;BME280;20720;48.886;9.388;2024-01-07T04:44:59;97857.94;;;9.03;100.00
34482;BME280;20720;48.886;9.388;2024-01-07T04:47:32;97861.94;;;9.45;100.00
34482;BME280;20720;48.886;9.388;2024-01-07T04:49:59;97861.34;;;9.56;100.00
34482;BME280;20720;48.886;9.388;2024-01-07T04:52:25;97860.34;;;9.50;100.00
34482;BME280;20720;48.886;9.388;2024-01-07T04:54:51;97867.19;;;9.58;100.00
34482;BME280;20720;48.886;9.388;2024-01-07T04:57:17;97863.97;;;9.63;100.00
34482;BME280;20720;48.886;9.388;2024-01-07T04:59:42;97862.75;;;9.59;100.00
34482;BME280;20720;48.886;9.388;2024-01-07T05:02:07;97862.34;;;9.55;100.00
34482;BME280;20720;48.886;9.388;2024-01-07T05:04:33;97873.06;;;9.34;100.00
34482;BME280;20720;48.886;9.388;2024-01-07T05:06:58;97872.44;;;9.45;100.00
34482;BME280;20720;48.886;9.388;2024-01-07T05:09:23;97870.19;;;9.62;100.00
34482;BME280;20720;48.886;9.388;2024-01-07T05:11:48;97870.81;;;9.57;100.00
34482;BME280;20720;48.886;9.388;2024-01-07T05:14:13;97872.63;;;9.50;100.00
34482;BME280;20720;48.886;9.388;2024-01-07T05:16:39;97880.28;;;9.58;100.00
34482;BME280;20720;48.886;9.388;2024-01-07T05:19:04;97881.69;;;9.74;100.00
34482;BME280;20720;48.886;9.388;2024-01-07T05:21:29;97877.09;;;9.23;100.00
34482;BME280;20720;48.886;9.388;2024-01-07T05:23:55;97873.25;;;9.19;100.00
34482;BME280;20720;48.886;9.388;2024-01-07T05:26:21;97882.94;;;9.45;100.00
34482;BME280;20720;48.886;9.388;2024-01-07T05:28:46;97881.72;;;9.28;100.00
34482;BME280;20720;48.886;9.388;2024-01-07T05:31:18;97887.75;;;9.55;100.00
34482;BME280;20720;48.886;9.388;2024-01-07T05:33:44;97885.34;;;9.40;100.00
34482;BME280;20720;48.886;9.388;2024-01-07T05:36:10;97888.75;;;9.60;100.00
34482;BME280;20720;48.886;9.388;2024-01-07T05:38:35;97885.75;;;9.37;100.00
34482;BME280;20720;48.886;9.388;2024-01-07T05:41:00;97893.00;;;9.61;100.00
34482;BME280;20720;48.886;9.388;2024-01-07T05:43:26;97889.38;;;9.49;100.00
34482;BME280;20720;48.886;9.388;2024-01-07T05:45:51;97893.22;;;9.40;100.00
34482;BME280;20720;48.886;9.388;2024-01-07T05:48:16;97894.09;;;8.54;100.00
34482;BME280;20720;48.886;9.388;2024-01-07T05:50:41;97895.47;;;8.50;100.00
34482;BME280;20720;48.886;9.388;2024-01-07T05:53:07;97892.91;;;8.63;100.00
34482;BME280;20720;48.886;9.388;2024-01-07T05:55:32;97900.81;;;8.76;100.00
34482;BME280;20720;48.886;9.388;2024-01-07T05:57:57;97908.22;;;8.66;100.00
34482;BME280;20720;48.886;9.388;2024-01-07T06:00:23;97901.59;;;8.23;100.00
34482;BME280;20720;48.886;9.388;2024-01-07T06:02:48;97900.63;;;8.84;100.00
34482;BME280;20720;48.886;9.388;2024-01-07T06:05:13;97906.84;;;8.77;100.00
34482;BME280;20720;48.886;9.388;2024-01-07T06:07:39;97906.06;;;8.76;100.00
34482;BME280;20720;48.886;9.388;2024-01-07T06:10:04;97908.94;;;9.27;100.00
34482;BME280;20720;48.886;9.388;2024-01-07T06:12:30;97906.72;;;9.43;100.00
34482;BME280;20720;48.886;9.388;2024-01-07T06:14:55;97910.22;;;8.57;100.00
34482;BME280;20720;48.886;9.388;2024-01-07T06:17:20;97913.13;;;8.95;100.00
34482;BME280;20720;48.886;9.388;2024-01-07T06:19:46;97917.28;;;8.64;100.00
34482;BME280;20720;48.886;9.388;2024-01-07T06:22:11;97914.78;;;8.42;100.00
34482;BME280;20720;48.886;9.388;2024-01-07T06:24:36;97916.09;;;7.91;100.00
34482;BME280;20720;48.886;9.388;2024-01-07T06:27:01;97919.03;;;8.43;100.00
34482;BME280;20720;48.886;9.388;2024-01-07T06:29:29;97923.41;;;8.84;100.00
34482;BME280;20720;48.886;9.388;2024-01-07T06:31:54;97934.66;;;8.78;100.00
34482;BME280;20720;48.886;9.388;2024-01-07T06:34:19;97939.84;;;8.65;100.00
34482;BME280;20720;48.886;9.388;2024-01-07T06:36:44;97935.69;;;8.83;100.00
34482;BME280;20720;48.886;9.388;2024-01-07T06:39:10;97936.06;;;8.80;100.00
34482;BME280;20720;48.886;9.388;2024-01-07T06:41:35;97952.50;;;7.86;100.00
34482;BME280;20720;48.886;9.388;2024-01-07T06:44:02;97953.88;;;7.54;100.00
34482;BME280;20720;48.886;9.388;2024-01-07T06:46:27;97937.88;;;7.64;100.00
34482;BME280;20720;48.886;9.388;2024-01-07T06:48:53;97949.09;;;7.37;100.00
34482;BME280;20720;48.886;9.388;2024-01-07T06:51:18;97954.50;;;6.93;100.00
34482;BME280;20720;48.886;9.388;2024-01-07T06:53:43;97954.31;;;6.74;100.00
34482;BME280;20720;48.886;9.388;2024-01-07T06:56:08;97960.41;;;7.44;100.00
34482;BME280;20720;48.886;9.388;2024-01-07T06:58:34;97963.72;;;7.80;100.00
34482;BME280;20720;48.886;9.388;2024-01-07T07:00:59;97962.75;;;8.15;100.00
34482;BME280;20720;48.886;9.388;2024-01-07T07:03:24;97968.88;;;7.95;100.00
34482;BME280;20720;48.886;9.388;2024-01-07T07:05:49;97974.16;;;7.80;100.00
34482;BME280;20720;48.886;9.388;2024-01-07T07:08:15;97967.81;;;7.40;100.00
34482;BME280;20720;48.886;9.388;2024-01-07T07:10:41;97982.69;;;8.50;100.00
34482;BME280;20720;48.886;9.388;2024-01-07T07:13:06;97977.88;;;8.54;100.00
34482;BME280;20720;48.886;9.388;2024-01-07T07:15:31;97978.44;;;8.97;100.00
34482;BME280;20720;48.886;9.388;2024-01-07T07:17:56;97983.50;;;8.57;100.00
34482;BME280;20720;48.886;9.388;2024-01-07T07:20:22;97985.16;;;8.24;100.00
34482;BME280;20720;48.886;9.388;2024-01-07T07:22:47;97995.50;;;8.32;100.00
34482;BME280;20720;48.886;9.388;2024-01-07T07:25:12;98001.19;;;7.87;100.00
34482;BME280;20720;48.886;9.388;2024-01-07T07:27:38;97998.50;;;8.08;100.00
34482;BME280;20720;48.886;9.388;2024-01-07T07:30:04;98008.31;;;8.27;100.00
34482;BME280;20720;48.886;9.388;2024-01-07T07:32:30;98008.63;;;8.18;100.00
34482;BME280;20720;48.886;9.388;2024-01-07T07:34:55;98016.06;;;8.14;100.00
34482;BME280;20720;48.886;9.388;2024-01-07T07:37:20;98025.41;;;7.53;100.00
34482;BME280;20720;48.886;9.388;2024-01-07T07:39:45;98021.34;;;6.73;100.00
34482;BME280;20720;48.886;9.388;2024-01-07T07:42:11;98021.34;;;6.73;100.00
34482;BME280;20720;48.886;9.388;2024-01-07T07:44:36;98026.97;;;7.27;100.00
34482;BME280;20720;48.886;9.388;2024-01-07T07:47:01;98037.75;;;7.03;100.00
34482;BME280;20720;48.886;9.388;2024-01-07T07:49:27;98030.16;;;6.28;100.00
34482;BME280;20720;48.886;9.388;2024-01-07T07:51:52;98032.94;;;5.98;100.00
34482;BME280;20720;48.886;9.388;2024-01-07T07:54:17;98044.47;;;6.91;100.00
34482;BME280;20720;48.886;9.388;2024-01-07T07:56:43;98054.88;;;7.41;100.00
34482;BME280;20720;48.886;9.388;2024-01-07T07:59:08;98049.72;;;7.12;100.00
34482;BME280;20720;48.886;9.388;2024-01-07T08:01:34;98056.03;;;6.52;100.00
34482;BME280;20720;48.886;9.388;2024-01-07T08:03:59;98065.97;;;6.78;100.00
34482;BME280;20720;48.886;9.388;2024-01-07T08:06:24;98058.00;;;5.84;100.00
34482;BME280;20720;48.886;9.388;2024-01-07T08:08:50;98062.66;;;6.11;100.00
34482;BME280;20720;48.886;9.388;2024-01-07T08:11:15;98066.22;;;6.10;100.00
34482;BME280;20720;48.886;9.388;2024-01-07T08:13:41;98062.09;;;5.56;100.00
34482;BME280;20720;48.886;9.388;2024-01-07T08:16:06;98068.13;;;6.31;100.00
34482;BME280;20720;48.886;9.388;2024-01-07T08:18:32;98077.25;;;5.98;100.00
34482;BME280;20720;48.886;9.388;2024-01-07T08:20:58;98077.53;;;5.80;100.00
34482;BME280;20720;48.886;9.388;2024-01-07T08:23:24;98076.91;;;6.01;100.00
34482;BME280;20720;48.886;9.388;2024-01-07T08:25:49;98081.16;;;6.16;100.00
34482;BME280;20720;48.886;9.388;2024-01-07T08:28:16;98073.41;;;6.08;100.00
34482;BME280;20720;48.886;9.388;2024-01-07T08:30:41;98075.63;;;5.97;100.00
34482;BME280;20720;48.886;9.388;2024-01-07T08:33:07;98083.97;;;6.88;100.00
34482;BME280;20720;48.886;9.388;2024-01-07T08:35:32;98084.59;;;6.60;100.00
34482;BME280;20720;48.886;9.388;2024-01-07T08:37:57;98078.94;;;6.42;100.00
34482;BME280;20720;48.886;9.388;2024-01-07T08:40:22;98074.81;;;5.73;100.00
34482;BME280;20720;48.886;9.388;2024-01-07T08:42:48;98076.50;;;5.66;100.00
34482;BME280;20720;48.886;9.388;2024-01-07T08:45:13;98083.84;;;6.08;100.00
34482;BME280;20720;48.886;9.388;2024-01-07T08:47:38;98090.91;;;6.22;100.00
34482;BME280;20720;48.886;9.388;2024-01-07T08:50:05;98082.41;;;5.83;100.00
34482;BME280;20720;48.886;9.388;2024-01-07T08:52:30;98090.22;;;5.83;100.00
34482;BME280;20720;48.886;9.388;2024-01-07T08:54:55;98088.06;;;6.76;100.00
34482;BME280;20720;48.886;9.388;2024-01-07T08:57:21;98091.34;;;7.49;100.00
34482;BME280;20720;48.886;9.388;2024-01-07T08:59:46;98102.97;;;6.82;100.00
34482;BME280;20720;48.886;9.388;2024-01-07T09:02:11;98102.63;;;6.85;100.00
34482;BME280;20720;48.886;9.388;2024-01-07T09:04:37;98116.13;;;6.88;100.00
34482;BME280;20720;48.886;9.388;2024-01-07T09:07:03;98112.94;;;5.97;100.00
34482;BME280;20720;48.886;9.388;2024-01-07T09:09:28;98117.72;;;6.45;100.00
34482;BME280;20720;48.886;9.388;2024-01-07T09:11:53;98111.19;;;7.29;100.00
34482;BME280;20720;48.886;9.388;2024-01-07T09:14:21;98127.19;;;6.09;100.00
34482;BME280;20720;48.886;9.388;2024-01-07T09:16:47;98131.44;;;5.80;100.00
34482;BME280;20720;48.886;9.388;2024-01-07T09:19:12;98128.00;;;6.61;100.00
34482;BME280;20720;48.886;9.388;2024-01-07T09:21:37;98137.81;;;7.18;100.00
34482;BME280;20720;48.886;9.388;2024-01-07T09:24:02;98140.03;;;5.35;100.00
34482;BME280;20720;48.886;9.388;2024-01-07T09:26:28;98134.94;;;6.17;100.00
34482;BME280;20720;48.886;9.388;2024-01-07T09:28:53;98135.47;;;6.94;100.00
34482;BME280;20720;48.886;9.388;2024-01-07T09:31:18;98142.25;;;6.22;100.00
34482;BME280;20720;48.886;9.388;2024-01-07T09:33:44;98151.13;;;7.08;100.00
34482;BME280;20720;48.886;9.388;2024-01-07T09:36:09;98155.44;;;6.43;100.00
34482;BME280;20720;48.886;9.388;2024-01-07T09:38:35;98161.78;;;6.03;100.00
34482;BME280;20720;48.886;9.388;2024-01-07T09:41:01;98160.41;;;6.52;100.00
34482;BME280;20720;48.886;9.388;2024-01-07T09:43:26;98163.13;;;5.99;100.00
34482;BME280;20720;48.886;9.388;2024-01-07T09:45:53;98164.72;;;6.75;100.00
34482;BME280;20720;48.886;9.388;2024-01-07T09:48:19;98165.38;;;6.77;100.00
34482;BME280;20720;48.886;9.388;2024-01-07T09:50:44;98165.75;;;6.88;100.00
34482;BME280;20720;48.886;9.388;2024-01-07T09:53:15;98155.38;;;6.95;100.00
34482;BME280;20720;48.886;9.388;2024-01-07T09:55:59;98159.13;;;6.48;100.00
34482;BME280;20720;48.886;9.388;2024-01-07T09:58:26;98157.06;;;6.21;100.00
34482;BME280;20720;48.886;9.388;2024-01-07T10:00:52;98151.75;;;6.15;100.00
34482;BME280;20720;48.886;9.388;2024-01-07T10:03:17;98151.03;;;6.73;100.00
34482;BME280;20720;48.886;9.388;2024-01-07T10:05:42;98150.03;;;7.17;100.00
34482;BME280;20720;48.886;9.388;2024-01-07T10:08:09;98147.03;;;6.47;100.00
34482;BME280;20720;48.886;9.388;2024-01-07T10:10:35;98152.53;;;5.70;100.00
34482;BME280;20720;48.886;9.388;2024-01-07T10:13:00;98156.63;;;6.84;100.00
34482;BME280;20720;48.886;9.388;2024-01-07T10:15:25;98152.44;;;5.25;100.00
34482;BME280;20720;48.886;9.388;2024-01-07T10:17:55;98148.75;;;6.03;100.00
34482;BME280;20720;48.886;9.388;2024-01-07T10:20:21;98170.66;;;5.33;100.00
34482;BME280;20720;48.886;9.388;2024-01-07T10:22:49;98164.44;;;5.34;100.00
34482;BME280;20720;48.886;9.388;2024-01-07T10:25:15;98168.88;;;5.25;100.00
34482;BME280;20720;48.886;9.388;2024-01-07T10:27:40;98165.91;;;5.36;100.00
34482;BME280;20720;48.886;9.388;2024-01-07T10:30:06;98167.66;;;5.74;100.00
34482;BME280;20720;48.886;9.388;2024-01-07T10:32:31;98166.03;;;7.08;98.06
34482;BME280;20720;48.886;9.388;2024-01-07T10:35:04;98164.13;;;7.02;98.97
34482;BME280;20720;48.886;9.388;2024-01-07T10:37:32;98173.13;;;6.33;100.00
34482;BME280;20720;48.886;9.388;2024-01-07T10:39:58;98174.66;;;6.05;100.00
34482;BME280;20720;48.886;9.388;2024-01-07T10:42:30;98174.91;;;6.32;100.00
34482;BME280;20720;48.886;9.388;2024-01-07T10:44:56;98169.06;;;6.30;100.00
34482;BME280;20720;48.886;9.388;2024-01-07T10:47:23;98177.25;;;5.74;100.00
34482;BME280;20720;48.886;9.388;2024-01-07T10:49:50;98177.38;;;5.19;100.00
34482;BME280;20720;48.886;9.388;2024-01-07T10:52:16;98181.34;;;6.44;100.00
34482;BME280;20720;48.886;9.388;2024-01-07T10:54:42;98183.75;;;6.46;99.65
34482;BME280;20720;48.886;9.388;2024-01-07T10:57:13;98183.38;;;6.34;97.83
34482;BME280;20720;48.886;9.388;2024-01-07T10:59:41;98191.94;;;6.95;95.13
34482;BME280;20720;48.886;9.388;2024-01-07T11:02:07;98190.88;;;5.23;100.00
34482;BME280;20720;48.886;9.388;2024-01-07T11:04:45;98171.13;;;6.20;100.00
34482;BME280;20720;48.886;9.388;2024-01-07T11:10:18;98176.00;;;6.38;100.00
34482;BME280;20720;48.886;9.388;2024-01-07T11:12:53;98189.78;;;5.48;100.00
34482;BME280;20720;48.886;9.388;2024-01-07T11:18:17;98193.53;;;5.45;100.00
34482;BME280;20720;48.886;9.388;2024-01-07T11:20:44;98187.63;;;6.35;100.00
34482;BME280;20720;48.886;9.388;2024-01-07T11:23:32;98196.13;;;6.29;100.00
34482;BME280;20720;48.886;9.388;2024-01-07T11:26:02;98188.25;;;6.37;100.00
34482;BME280;20720;48.886;9.388;2024-01-07T11:28:52;98192.25;;;5.72;100.00
34482;BME280;20720;48.886;9.388;2024-01-07T11:31:20;98181.22;;;6.15;100.00
34482;BME280;20720;48.886;9.388;2024-01-07T11:33:47;98195.47;;;6.13;100.00
34482;BME280;20720;48.886;9.388;2024-01-07T11:36:14;98196.09;;;5.53;100.00
34482;BME280;20720;48.886;9.388;2024-01-07T11:38:47;98187.63;;;5.59;100.00
34482;BME280;20720;48.886;9.388;2024-01-07T11:41:14;98197.94;;;4.98;100.00
34482;BME280;20720;48.886;9.388;2024-01-07T11:43:55;98185.59;;;6.00;100.00
34482;BME280;20720;48.886;9.388;2024-01-07T11:46:22;98191.63;;;5.70;100.00
34482;BME280;20720;48.886;9.388;2024-01-07T11:48:47;98189.38;;;6.20;100.00
34482;BME280;20720;48.886;9.388;2024-01-07T11:51:13;98190.78;;;6.45;100.00
34482;BME280;20720;48.886;9.388;2024-01-07T11:53:39;98190.38;;;6.56;100.00
34482;BME280;20720;48.886;9.388;2024-01-07T11:56:04;98193.19;;;6.10;100.00
34482;BME280;20720;48.886;9.388;2024-01-07T11:58:30;98189.50;;;6.79;100.00
34482;BME280;20720;48.886;9.388;2024-01-07T12:00:55;98188.16;;;6.08;100.00
34482;BME280;20720;48.886;9.388;2024-01-07T12:03:20;98192.63;;;4.84;100.00
34482;BME280;20720;48.886;9.388;2024-01-07T12:05:46;98200.88;;;5.42;100.00
34482;BME280;20720;48.886;9.388;2024-01-07T12:08:12;98199.22;;;5.80;100.00
34482;BME280;20720;48.886;9.388;2024-01-07T12:10:38;98206.56;;;4.99;100.00
34482;BME280;20720;48.886;9.388;2024-01-07T12:13:03;98214.06;;;5.40;100.00
34482;BME280;20720;48.886;9.388;2024-01-07T12:15:29;98205.53;;;5.24;100.00
34482;BME280;20720;48.886;9.388;2024-01-07T12:17:56;98197.50;;;6.40;100.00
34482;BME280;20720;48.886;9.388;2024-01-07T12:20:22;98206.28;;;4.94;100.00
34482;BME280;20720;48.886;9.388;2024-01-07T12:22:47;98210.84;;;4.84;100.00
34482;BME280;20720;48.886;9.388;2024-01-07T12:25:12;98206.81;;;6.20;100.00
34482;BME280;20720;48.886;9.388;2024-01-07T12:27:40;98208.44;;;5.21;100.00
34482;BME280;20720;48.886;9.388;2024-01-07T12:30:06;98211.56;;;5.16;100.00
34482;BME280;20720;48.886;9.388;2024-01-07T12:32:31;98202.28;;;5.91;100.00
34482;BME280;20720;48.886;9.388;2024-01-07T12:34:58;98204.94;;;6.51;100.00
34482;BME280;20720;48.886;9.388;2024-01-07T12:37:26;98218.44;;;5.48;100.00
34482;BME280;20720;48.886;9.388;2024-01-07T12:39:51;98228.63;;;5.19;100.00
34482;BME280;20720;48.886;9.388;2024-01-07T12:42:17;98214.06;;;5.79;100.00
34482;BME280;20720;48.886;9.388;2024-01-07T12:44:43;98226.09;;;4.95;100.00
34482;BME280;20720;48.886;9.388;2024-01-07T12:47:08;98218.81;;;4.90;100.00
34482;BME280;20720;48.886;9.388;2024-01-07T12:49:34;98215.38;;;5.44;100.00
34482;BME280;20720;48.886;9.388;2024-01-07T12:51:59;98222.00;;;5.00;100.00
34482;BME280;20720;48.886;9.388;2024-01-07T12:54:25;98228.91;;;4.21;100.00
34482;BME280;20720;48.886;9.388;2024-01-07T12:56:50;98224.88;;;4.34;100.00
34482;BME280;20720;48.886;9.388;2024-01-07T12:59:15;98231.84;;;4.26;100.00